createdAt,value
2018-11-07T00:00:20.260Z,53.10
2018-11-07T00:02:50.471Z,53.15
2018-11-07T00:05:20.722Z,52.99
2018-11-07T00:07:50.804Z,53.19
2018-11-07T00:10:20.658Z,52.95
2018-11-07T00:12:50.505Z,53.41
2018-11-07T00:15:20.387Z,53.16
2018-11-07T00:17:50.403Z,53.40
2018-11-07T00:20:20.519Z,53.04
2018-11-07T00:22:50.451Z,53.19
2018-11-07T00:25:20.697Z,53.13
2018-11-07T00:27:50.321Z,53.21
2018-11-07T00:30:19.979Z,53.41
2018-11-07T00:32:50.921Z,52.84
2018-11-07T00:35:20.880Z,53.09
2018-11-07T00:37:51.288Z,53.58
2018-11-07T00:40:22.439Z,53.47
2018-11-07T00:42:52.858Z,53.07
2018-11-07T00:45:22.630Z,53.52
2018-11-07T00:47:52.202Z,53.34
2018-11-07T00:50:21.775Z,53.46
2018-11-07T00:52:51.494Z,53.19
2018-11-07T00:55:21.443Z,53.24
2018-11-07T00:57:51.793Z,53.01
2018-11-07T01:00:21.662Z,53.39
2018-11-07T01:02:51.315Z,53.07
2018-11-07T01:05:21.320Z,53.36
2018-11-07T01:07:51.538Z,53.54
2018-11-07T01:10:24.202Z,53.68
2018-11-07T01:12:54.542Z,53.32
2018-11-07T01:15:24.225Z,53.41
2018-11-07T01:17:54.199Z,53.43
2018-11-07T01:20:24.489Z,53.76
2018-11-07T01:22:54.443Z,53.52
2018-11-07T01:25:25.341Z,53.42
2018-11-07T01:27:55.475Z,53.70
2018-11-07T01:30:25.637Z,53.56
2018-11-07T01:32:55.268Z,53.62
2018-11-07T01:35:24.953Z,53.66
2018-11-07T01:37:56.144Z,53.58
2018-11-07T01:40:25.727Z,53.81
2018-11-07T01:42:55.270Z,53.67
2018-11-07T01:45:25.641Z,53.94
2018-11-07T01:47:55.872Z,53.88
2018-11-07T01:50:26.095Z,53.85
2018-11-07T01:52:55.806Z,53.88
2018-11-07T01:55:25.926Z,53.91
2018-11-07T01:57:55.532Z,53.72
2018-11-07T02:00:25.359Z,54.04
2018-11-07T02:02:55.053Z,53.84
2018-11-07T02:05:24.670Z,53.98
2018-11-07T02:07:54.149Z,53.69
2018-11-07T02:10:23.755Z,53.74
2018-11-07T02:12:53.672Z,53.86
2018-11-07T02:15:23.685Z,53.91
2018-11-07T02:17:53.267Z,53.95
2018-11-07T02:20:23.086Z,54.09
2018-11-07T02:22:53.758Z,53.91
2018-11-07T02:25:23.800Z,53.91
2018-11-07T02:27:53.872Z,54.21
2018-11-07T02:30:23.834Z,54.10
2018-11-07T02:32:54.198Z,53.95
2018-11-07T02:35:24.295Z,54.59
2018-11-07T02:37:54.183Z,54.14
2018-11-07T02:40:23.724Z,54.38
2018-11-07T02:42:54.195Z,54.73
2018-11-07T02:45:23.863Z,54.28
2018-11-07T02:47:53.567Z,54.09
2018-11-07T02:50:23.555Z,54.44
2018-11-07T02:52:53.356Z,54.42
2018-11-07T02:55:22.980Z,54.67
2018-11-07T02:57:52.992Z,54.35
2018-11-07T03:00:22.940Z,54.35
2018-11-07T03:02:52.835Z,54.60
2018-11-07T03:05:23.377Z,54.53
2018-11-07T03:07:52.986Z,54.57
2018-11-07T03:10:24.380Z,54.35
2018-11-07T03:12:54.177Z,54.13
2018-11-07T03:15:23.993Z,54.72
2018-11-07T03:17:53.794Z,54.50
2018-11-07T03:20:23.453Z,54.55
2018-11-07T03:22:53.359Z,54.58
2018-11-07T03:25:23.301Z,54.63
2018-11-07T03:27:52.954Z,54.29
2018-11-07T03:30:23.193Z,54.67
2018-11-07T03:32:52.793Z,54.51
2018-11-07T03:35:28.857Z,54.50
2018-11-07T03:37:58.861Z,54.51
2018-11-07T03:40:29.027Z,54.37
2018-11-07T03:42:59.269Z,54.75
2018-11-07T03:45:33.823Z,54.50
2018-11-07T03:48:03.969Z,54.89
2018-11-07T03:50:34.141Z,54.64
2018-11-07T03:53:06.143Z,54.92
2018-11-07T03:55:36.250Z,54.76
2018-11-07T03:58:06.509Z,54.64
2018-11-07T04:00:36.372Z,54.69
2018-11-07T04:03:07.104Z,54.68
2018-11-07T04:05:37.367Z,54.80
2018-11-07T04:08:07.659Z,54.95
2018-11-07T04:10:37.373Z,54.85
2018-11-07T04:13:07.511Z,54.70
2018-11-07T04:15:37.705Z,54.60
2018-11-07T04:18:07.920Z,54.83
2018-11-07T04:23:05.551Z,55.01
2018-11-07T04:25:35.218Z,54.91
2018-11-07T04:28:05.213Z,54.66
2018-11-07T04:30:35.357Z,54.73
2018-11-07T04:33:05.270Z,54.75
2018-11-07T04:35:35.552Z,54.47
2018-11-07T04:38:05.397Z,54.77
2018-11-07T04:40:36.010Z,55.04
2018-11-07T04:43:06.060Z,54.67
2018-11-07T04:45:35.880Z,54.94
2018-11-07T04:48:05.806Z,55.08
2018-11-07T04:50:36.509Z,54.70
2018-11-07T04:53:06.368Z,55.12
2018-11-07T04:55:36.177Z,55.19
2018-11-07T04:58:05.991Z,55.05
2018-11-07T05:00:36.987Z,54.87
2018-11-07T05:03:07.129Z,54.70
2018-11-07T05:05:37.211Z,55.16
2018-11-07T05:08:07.342Z,55.03
2018-11-07T05:10:37.178Z,54.88
2018-11-07T05:13:07.463Z,54.97
2018-11-07T05:15:37.279Z,55.03
2018-11-07T05:18:07.328Z,55.36
2018-11-07T05:20:37.755Z,55.05
2018-11-07T05:23:07.672Z,55.25
2018-11-07T05:25:38.110Z,55.04
2018-11-07T05:28:07.790Z,55.41
2018-11-07T05:30:37.767Z,55.31
2018-11-07T05:33:07.875Z,55.07
2018-11-07T05:35:38.290Z,55.15
2018-11-07T05:38:08.171Z,54.79
2018-11-07T05:40:38.404Z,55.13
2018-11-07T05:43:08.185Z,55.36
2018-11-07T05:45:37.865Z,55.34
2018-11-07T05:48:08.494Z,55.19
2018-11-07T05:50:38.366Z,55.14
2018-11-07T05:53:08.464Z,55.28
2018-11-07T05:55:38.727Z,55.26
2018-11-07T05:58:10.055Z,55.20
2018-11-07T06:00:40.051Z,54.83
2018-11-07T06:03:09.718Z,55.00
2018-11-07T06:05:39.660Z,54.66
2018-11-07T06:08:09.871Z,54.77
2018-11-07T06:10:40.721Z,54.36
2018-11-07T06:13:11.134Z,54.48
2018-11-07T06:15:41.154Z,54.55
2018-11-07T06:18:11.755Z,54.45
2018-11-07T06:20:41.451Z,54.28
2018-11-07T06:23:11.102Z,54.34
2018-11-07T06:25:40.829Z,54.41
2018-11-07T06:28:10.829Z,54.32
2018-11-07T06:30:41.179Z,54.49
2018-11-07T06:33:10.811Z,54.83
2018-11-07T06:35:40.438Z,54.50
2018-11-07T06:38:10.547Z,54.98
2018-11-07T06:40:41.179Z,55.30
2018-11-07T06:43:11.974Z,55.15
2018-11-07T06:45:41.889Z,55.06
2018-11-07T06:48:11.581Z,54.45
2018-11-07T06:50:41.470Z,55.21
2018-11-07T06:53:11.435Z,54.82
2018-11-07T06:55:41.730Z,54.95
2018-11-07T06:58:11.918Z,54.99
2018-11-07T07:00:42.245Z,54.98
2018-11-07T07:03:12.076Z,54.88
2018-11-07T07:05:42.499Z,55.07
2018-11-07T07:08:12.329Z,54.67
2018-11-07T07:10:42.375Z,54.85
2018-11-07T07:13:12.330Z,54.79
2018-11-07T07:15:42.928Z,54.93
2018-11-07T07:18:14.243Z,54.33
2018-11-07T07:20:47.907Z,54.67
2018-11-07T07:23:17.851Z,54.85
2018-11-07T07:25:47.528Z,54.56
2018-11-07T07:28:17.417Z,54.33
2018-11-07T07:30:47.298Z,54.48
2018-11-07T07:33:17.580Z,54.31
2018-11-07T07:35:48.365Z,54.16
2018-11-07T07:38:18.198Z,54.74
2018-11-07T07:40:47.951Z,54.35
2018-11-07T07:43:17.582Z,54.34
2018-11-07T07:45:47.544Z,54.35
2018-11-07T07:48:17.127Z,53.98
2018-11-07T07:50:47.363Z,54.12
2018-11-07T07:53:18.558Z,54.43
2018-11-07T07:55:48.423Z,53.92
2018-11-07T07:58:18.345Z,54.34
2018-11-07T08:00:49.738Z,53.74
2018-11-07T08:03:19.478Z,54.01
2018-11-07T08:05:49.576Z,53.76
2018-11-07T08:08:19.878Z,53.79
2018-11-07T08:10:50.350Z,53.58
2018-11-07T08:13:20.174Z,53.74
2018-11-07T08:15:50.214Z,53.38
2018-11-07T08:18:20.059Z,53.21
2018-11-07T08:20:51.091Z,53.09
2018-11-07T08:23:20.784Z,53.26
2018-11-07T08:25:51.182Z,53.49
2018-11-07T08:28:20.943Z,53.24
2018-11-07T08:30:50.951Z,52.82
2018-11-07T08:33:20.970Z,53.01
2018-11-07T08:35:50.661Z,53.13
2018-11-07T08:38:20.442Z,53.17
2018-11-07T08:40:50.041Z,53.14
2018-11-07T08:43:19.663Z,52.71
2018-11-07T08:45:50.202Z,53.09
2018-11-07T08:48:20.585Z,53.18
2018-11-07T08:50:50.721Z,52.34
2018-11-07T08:53:20.461Z,52.75
2018-11-07T08:55:51.450Z,52.76
2018-11-07T08:58:22.255Z,52.44
2018-11-07T09:00:52.044Z,52.53
2018-11-07T09:03:22.200Z,52.39
2018-11-07T09:05:52.225Z,52.51
2018-11-07T09:08:23.537Z,52.28
2018-11-07T09:10:53.669Z,51.69
2018-11-07T09:13:23.634Z,52.11
2018-11-07T09:15:53.382Z,51.99
2018-11-07T09:18:22.987Z,51.79
2018-11-07T09:20:53.040Z,51.58
2018-11-07T09:23:23.156Z,51.36
2018-11-07T09:25:53.107Z,51.53
2018-11-07T09:28:24.453Z,51.75
2018-11-07T09:30:54.209Z,51.55
2018-11-07T09:33:24.269Z,51.78
2018-11-07T09:35:54.284Z,51.49
2018-11-07T09:38:24.499Z,51.50
2018-11-07T09:40:54.454Z,51.37
2018-11-07T09:43:25.177Z,51.18
2018-11-07T09:45:55.337Z,51.50
2018-11-07T09:48:25.237Z,51.08
2018-11-07T09:50:55.189Z,50.94
2018-11-07T09:53:25.726Z,51.26
2018-11-07T09:55:55.597Z,50.99
2018-11-07T09:58:25.338Z,50.82
2018-11-07T10:00:55.554Z,50.70
2018-11-07T10:03:25.987Z,50.75
2018-11-07T10:05:55.877Z,50.55
2018-11-07T10:08:25.582Z,50.42
2018-11-07T10:10:59.421Z,50.33
2018-11-07T10:13:29.273Z,50.63
2018-11-07T10:15:59.014Z,50.28
2018-11-07T10:18:29.174Z,50.46
2018-11-07T10:21:04.955Z,50.51
2018-11-07T10:23:39.060Z,50.36
2018-11-07T10:26:09.423Z,50.48
2018-11-07T10:28:41.157Z,50.54
2018-11-07T10:31:10.906Z,50.60
2018-11-07T10:33:41.063Z,50.55
2018-11-07T10:36:11.216Z,50.45
2018-11-07T10:38:41.402Z,50.07
2018-11-07T10:41:11.130Z,49.92
2018-11-07T10:43:41.286Z,50.04
2018-11-07T10:46:11.562Z,50.13
2018-11-07T10:48:41.174Z,49.86
2018-11-07T10:51:11.287Z,49.74
2018-11-07T10:53:41.348Z,50.14
2018-11-07T10:56:12.232Z,49.77
2018-11-07T10:58:42.900Z,49.75
2018-11-07T11:01:17.509Z,49.64
2018-11-07T11:03:47.506Z,49.81
2018-11-07T11:06:17.352Z,49.43
2018-11-07T11:08:50.107Z,49.55
2018-11-07T11:11:20.860Z,49.60
2018-11-07T11:13:51.193Z,49.40
2018-11-07T11:16:21.271Z,49.57
2018-11-07T11:18:51.615Z,49.33
2018-11-07T11:21:21.373Z,49.07
2018-11-07T11:23:51.541Z,49.51
2018-11-07T11:26:21.796Z,49.12
2018-11-07T11:28:52.244Z,49.14
2018-11-07T11:31:22.130Z,48.87
2018-11-07T11:33:52.494Z,49.20
2018-11-07T11:36:22.461Z,49.10
2018-11-07T11:38:52.145Z,49.24
2018-11-07T11:41:23.513Z,48.71
2018-11-07T11:43:53.219Z,49.00
2018-11-07T11:46:24.087Z,48.88
2018-11-07T11:48:54.174Z,48.85
2018-11-07T11:51:24.147Z,48.48
2018-11-07T11:53:55.250Z,48.77
2018-11-07T11:56:26.879Z,48.58
2018-11-07T11:58:57.425Z,48.81
2018-11-07T12:01:27.522Z,48.74
2018-11-07T12:03:57.716Z,48.66
2018-11-07T12:06:27.808Z,48.43
2018-11-07T12:08:58.246Z,48.66
2018-11-07T12:11:28.446Z,48.43
2018-11-07T12:13:58.629Z,48.63
2018-11-07T12:16:28.933Z,48.31
2018-11-07T12:18:58.914Z,48.37
2018-11-07T12:21:29.684Z,48.52
2018-11-07T12:23:59.833Z,48.63
2018-11-07T12:26:31.249Z,48.54
2018-11-07T12:29:01.410Z,48.22
2018-11-07T12:31:31.757Z,48.30
2018-11-07T12:34:02.315Z,48.23
2018-11-07T12:36:32.072Z,48.26
2018-11-07T12:39:03.320Z,48.17
2018-11-07T12:41:33.324Z,47.97
2018-11-07T12:44:03.199Z,47.67
2018-11-07T12:46:33.093Z,47.89
2018-11-07T12:49:03.234Z,47.93
2018-11-07T12:51:33.500Z,47.81
2018-11-07T12:54:03.107Z,47.60
2018-11-07T12:56:32.910Z,47.42
2018-11-07T12:59:03.409Z,47.61
2018-11-07T13:01:33.222Z,47.40
2018-11-07T13:04:03.367Z,47.39
2018-11-07T13:06:33.693Z,47.15
2018-11-07T13:09:04.158Z,46.92
2018-11-07T13:11:33.866Z,47.19
2018-11-07T13:14:03.665Z,46.56
2018-11-07T13:16:38.184Z,46.44
2018-11-07T13:19:08.207Z,46.32
2018-11-07T13:21:38.100Z,46.00
2018-11-07T13:24:08.248Z,46.38
2018-11-07T13:26:38.446Z,46.30
2018-11-07T13:29:09.062Z,45.95
2018-11-07T13:31:40.748Z,45.97
2018-11-07T13:34:10.650Z,45.80
2018-11-07T13:36:41.210Z,46.04
2018-11-07T13:39:12.898Z,46.01
2018-11-07T13:41:43.206Z,45.91
2018-11-07T13:44:13.701Z,45.82
2018-11-07T13:46:44.088Z,46.05
2018-11-07T13:49:14.462Z,46.23
2018-11-07T13:51:44.864Z,46.03
2018-11-07T13:54:15.098Z,46.17
2018-11-07T13:56:45.183Z,46.46
2018-11-07T13:59:15.255Z,46.33
2018-11-07T14:01:45.548Z,46.42
2018-11-07T14:04:15.462Z,46.51
2018-11-07T14:06:45.654Z,46.38
2018-11-07T14:09:15.532Z,46.86
2018-11-07T14:11:45.956Z,46.67
2018-11-07T14:14:15.789Z,47.00
2018-11-07T14:16:45.767Z,46.96
2018-11-07T14:19:15.461Z,46.93
2018-11-07T14:21:45.416Z,47.17
2018-11-07T14:24:15.357Z,47.31
2018-11-07T14:26:46.706Z,47.38
2018-11-07T14:29:16.665Z,47.23
2018-11-07T14:31:48.636Z,47.52
2018-11-07T14:34:18.563Z,47.58
2018-11-07T14:36:49.350Z,47.27
2018-11-07T14:39:19.495Z,47.57
2018-11-07T14:41:50.628Z,47.79
2018-11-07T14:44:20.788Z,47.50
2018-11-07T14:46:50.865Z,47.57
2018-11-07T14:49:21.518Z,47.77
2018-11-07T14:51:54.556Z,47.67
2018-11-07T14:54:25.266Z,47.68
2018-11-07T14:56:55.334Z,47.88
2018-11-07T14:59:25.507Z,48.05
2018-11-07T15:01:55.522Z,47.91
2018-11-07T15:04:26.485Z,48.11
2018-11-07T15:06:56.733Z,47.74
2018-11-07T15:09:26.923Z,48.01
2018-11-07T15:11:57.350Z,47.90
2018-11-07T15:14:27.789Z,48.12
2018-11-07T15:16:58.255Z,48.32
2018-11-07T15:19:28.682Z,47.91
2018-11-07T15:22:00.580Z,48.36
2018-11-07T15:24:31.298Z,48.27
2018-11-07T15:27:03.807Z,48.03
2018-11-07T15:29:34.915Z,48.17
2018-11-07T15:32:05.229Z,48.40
2018-11-07T15:34:35.091Z,48.33
2018-11-07T15:37:04.772Z,48.31
2018-11-07T15:39:35.897Z,48.35
2018-11-07T15:42:06.579Z,48.45
2018-11-07T15:44:36.434Z,48.17
2018-11-07T15:47:06.755Z,48.26
2018-11-07T15:49:40.802Z,48.60
2018-11-07T15:52:10.652Z,48.61
2018-11-07T15:54:41.172Z,48.61
2018-11-07T15:57:11.895Z,48.66
2018-11-07T15:59:42.133Z,48.30
2018-11-07T16:02:12.415Z,48.39
2018-11-07T16:04:42.045Z,48.87
2018-11-07T16:07:11.642Z,48.71
2018-11-07T16:09:42.457Z,49.41
2018-11-07T16:12:18.414Z,49.72
2018-11-07T16:14:48.494Z,49.68
2018-11-07T16:17:18.702Z,49.93
2018-11-07T16:19:48.575Z,50.21
2018-11-07T16:22:18.638Z,49.98
2018-11-07T16:24:48.234Z,49.93
2018-11-07T16:27:18.438Z,49.80
2018-11-07T16:29:48.241Z,49.85
2018-11-07T16:32:18.167Z,50.08
2018-11-07T16:34:48.454Z,49.85
2018-11-07T16:37:18.725Z,50.11
2018-11-07T16:39:48.675Z,50.43
2018-11-07T16:42:18.470Z,50.45
2018-11-07T16:44:48.841Z,50.23
2018-11-07T16:47:18.675Z,50.47
2018-11-07T16:49:51.401Z,50.49
2018-11-07T16:52:21.167Z,50.55
2018-11-07T16:54:52.202Z,50.16
2018-11-07T16:57:22.208Z,50.42
2018-11-07T16:59:52.905Z,50.44
2018-11-07T17:02:22.892Z,50.57
2018-11-07T17:04:54.566Z,50.22
2018-11-07T17:07:25.964Z,50.41
2018-11-07T17:09:56.294Z,50.33
2018-11-07T17:12:26.143Z,50.45
2018-11-07T17:14:56.902Z,50.32
2018-11-07T17:17:26.550Z,50.54
2018-11-07T17:20:01.983Z,50.32
2018-11-07T17:22:32.335Z,50.63
2018-11-07T17:25:03.491Z,50.42
2018-11-07T17:27:35.101Z,50.27
2018-11-07T17:30:07.006Z,50.32
2018-11-07T17:32:36.774Z,50.63
2018-11-07T17:35:09.137Z,50.83
2018-11-07T17:37:39.134Z,50.61
2018-11-07T17:40:11.914Z,50.80
2018-11-07T17:42:46.090Z,50.57
2018-11-07T17:45:17.827Z,50.81
2018-11-07T17:47:48.156Z,50.52
2018-11-07T17:50:18.298Z,50.67
2018-11-07T17:52:48.773Z,50.74
2018-11-07T17:55:19.744Z,50.86
2018-11-07T17:57:49.876Z,50.78
2018-11-07T18:00:22.882Z,50.70
2018-11-07T18:02:52.958Z,50.85
2018-11-07T18:05:23.297Z,50.62
2018-11-07T18:07:52.987Z,50.90
2018-11-07T18:10:22.619Z,50.78
2018-11-07T18:12:53.182Z,50.88
2018-11-07T18:15:23.584Z,50.87
2018-11-07T18:17:54.504Z,50.66
2018-11-07T18:20:24.349Z,50.81
2018-11-07T18:22:54.489Z,50.86
2018-11-07T18:25:26.454Z,50.84
2018-11-07T18:27:56.617Z,50.77
2018-11-07T18:30:27.397Z,50.65
2018-11-07T18:32:57.049Z,50.87
2018-11-07T18:35:27.290Z,50.56
2018-11-07T18:37:57.556Z,50.76
2018-11-07T18:40:28.538Z,50.61
2018-11-07T18:43:00.215Z,51.02
2018-11-07T18:45:37.131Z,50.74
2018-11-07T18:48:07.001Z,50.82
2018-11-07T18:50:37.312Z,50.84
2018-11-07T18:53:09.698Z,50.97
2018-11-07T18:55:40.663Z,50.72
2018-11-07T18:58:11.477Z,50.93
2018-11-07T19:00:41.232Z,50.68
2018-11-07T19:03:11.565Z,50.96
2018-11-07T19:05:43.465Z,50.81
2018-11-07T19:08:13.749Z,50.94
2018-11-07T19:10:43.890Z,50.67
2018-11-07T19:13:15.762Z,51.14
2018-11-07T19:15:47.052Z,50.81
2018-11-07T19:18:17.845Z,50.52
2018-11-07T19:20:49.075Z,50.79
2018-11-07T19:23:18.678Z,50.99
2018-11-07T19:25:50.266Z,50.77
2018-11-07T19:28:20.708Z,51.14
2018-11-07T19:30:51.498Z,50.93
2018-11-07T19:33:21.202Z,51.26
2018-11-07T19:35:51.514Z,51.03
2018-11-07T19:38:21.774Z,51.18
2018-11-07T19:40:54.520Z,51.15
2018-11-07T19:43:25.138Z,51.08
2018-11-07T19:45:54.697Z,51.29
2018-11-07T19:48:25.177Z,50.86
2018-11-07T19:50:55.677Z,51.22
2018-11-07T19:53:25.948Z,50.84
2018-11-07T19:55:55.749Z,51.02
2018-11-07T19:58:26.256Z,50.89
2018-11-07T20:00:56.140Z,51.05
2018-11-07T20:03:26.290Z,51.33
2018-11-07T20:05:56.784Z,51.16
2018-11-07T20:08:26.591Z,51.12
2018-11-07T20:10:56.623Z,51.30
2018-11-07T20:13:26.658Z,51.14
2018-11-07T20:15:57.152Z,51.35
2018-11-07T20:18:27.174Z,51.20
2018-11-07T20:20:58.164Z,51.14
2018-11-07T20:23:28.187Z,51.33
2018-11-07T20:25:59.167Z,51.02
2018-11-07T20:28:29.444Z,51.05
2018-11-07T20:30:59.561Z,51.03
2018-11-07T20:33:29.577Z,50.96
2018-11-07T20:36:00.798Z,51.22
2018-11-07T20:38:30.806Z,51.18
2018-11-07T20:41:01.095Z,51.02
2018-11-07T20:43:32.029Z,51.12
2018-11-07T20:46:01.972Z,50.97
2018-11-07T20:48:31.711Z,51.01
2018-11-07T20:51:02.406Z,50.87
2018-11-07T20:53:32.321Z,51.23
2018-11-07T20:56:02.117Z,51.25
2018-11-07T20:58:32.756Z,50.99
2018-11-07T21:01:03.032Z,51.42
2018-11-07T21:03:33.023Z,51.19
2018-11-07T21:06:03.025Z,50.94
2018-11-07T21:08:32.885Z,51.26
2018-11-07T21:11:02.427Z,51.27
2018-11-07T21:13:33.312Z,51.39
2018-11-07T21:16:03.900Z,51.01
2018-11-07T21:18:33.994Z,51.26
2018-11-07T21:21:05.702Z,51.52
2018-11-07T21:23:35.479Z,51.40
2018-11-07T21:26:05.433Z,51.43
2018-11-07T21:28:36.666Z,51.42
2018-11-07T21:31:07.700Z,51.89
2018-11-07T21:33:39.295Z,52.20
2018-11-07T21:36:09.041Z,52.27
2018-11-07T21:38:39.469Z,52.46
2018-11-07T21:41:09.936Z,52.41
2018-11-07T21:43:42.367Z,52.70
2018-11-07T21:46:15.474Z,52.76
2018-11-07T21:48:47.717Z,53.01
2018-11-07T21:51:18.053Z,52.63
2018-11-07T21:53:48.348Z,52.99
2018-11-07T21:56:18.685Z,52.98
2018-11-07T21:58:49.062Z,52.62
2018-11-07T22:01:22.327Z,52.89
2018-11-07T22:03:52.040Z,53.36
2018-11-07T22:06:23.095Z,52.85
2018-11-07T22:08:53.130Z,52.78
2018-11-07T22:11:24.364Z,52.82
2018-11-07T22:13:54.824Z,53.30
2018-11-07T22:16:25.201Z,53.19
2018-11-07T22:18:55.651Z,53.16
2018-11-07T22:21:25.186Z,53.09
2018-11-07T22:23:55.125Z,53.54
2018-11-07T22:26:25.345Z,53.36
2018-11-07T22:28:55.381Z,52.99
2018-11-07T22:31:25.127Z,53.60
2018-11-07T22:33:55.416Z,53.51
2018-11-07T22:36:25.450Z,53.47
2018-11-07T22:38:55.400Z,53.53
2018-11-07T22:41:25.062Z,53.53
2018-11-07T22:43:54.726Z,53.28
2018-11-07T22:46:24.434Z,53.85
2018-11-07T22:48:54.506Z,53.74
2018-11-07T22:51:24.098Z,53.76
2018-11-07T22:53:54.962Z,53.76
2018-11-07T22:56:26.286Z,53.59
2018-11-07T22:58:58.142Z,53.88
2018-11-07T23:01:32.862Z,53.73
2018-11-07T23:04:03.282Z,53.46
2018-11-07T23:06:46.378Z,53.71
2018-11-07T23:09:16.288Z,53.70
2018-11-07T23:11:46.903Z,53.89
2018-11-07T23:14:17.118Z,53.93
2018-11-07T23:16:48.086Z,53.64
2018-11-07T23:19:18.622Z,53.75
2018-11-07T23:21:49.578Z,53.93
2018-11-07T23:24:19.896Z,54.08
2018-11-07T23:26:49.601Z,54.20
2018-11-07T23:29:21.077Z,54.11
2018-11-07T23:31:52.473Z,53.84
2018-11-07T23:34:22.547Z,54.12
2018-11-07T23:36:52.986Z,53.86
2018-11-07T23:39:22.638Z,54.07
2018-11-07T23:41:52.710Z,53.92
2018-11-07T23:44:23.784Z,53.97
2018-11-07T23:46:53.661Z,54.23
2018-11-07T23:49:23.322Z,54.16
2018-11-07T23:51:53.550Z,53.92
2018-11-07T23:54:23.162Z,53.93
2018-11-07T23:56:53.040Z,53.89
2018-11-07T23:59:22.881Z,53.95
